• Join FlightAware (Why Join?)
  • Login
  • US Flag 
08:20PM EDT


 

Airport Tracker/Info


-or-


 

Live Flight TrackerFlight Track Log ✈ VOZ464 ✈ 13-Apr-2013 ✈ YBBN / BNE - YPPH / PER

Flight Track Log - Related Links

Times and Time Zones

All times are in EDT time to prevent confusion due to time zone crossing. See the VOZ464 flight status page for this flight to view local times or setup timezone preferences in your user account.

Time Position Orientation Groundspeed Altitude Reporting Facility
EDT Latitude Longitude Course Direction KTS MPH feet Rate Location/Type
06:59PM -27.3890 153.1220 115° Southeast 10 12  Level FlightAware
07:00PM -27.3880 153.1230 42° Northeast 12 14 120 Level FlightAware
07:00PM -27.3870 153.1240 42° Northeast 16 18 120 Level FlightAware
07:01PM -27.3850 153.1250 24° Northeast 18 21 120 Level FlightAware
07:01PM -27.3830 153.1260 24° Northeast 19 22 120 Level FlightAware
07:02PM -27.3800 153.1280 31° Northeast 18 21 120 Level FlightAware
07:02PM -27.3780 153.1290 24° Northeast 18 21 180 Level FlightAware
07:02PM -27.3760 153.1300 24° Northeast 17 20 180 Level FlightAware
07:03PM -27.3740 153.1310 24° Northeast 16 18 240 Level FlightAware
07:03PM -27.3730 153.1320 42° Northeast 10 12 240 Level FlightAware
07:04PM -27.3730 153.1330 90° East 9 10 300 Level FlightAware
07:04PM -27.3730 153.1340 90° East 12 14 360 Level FlightAware
07:04PM -27.3740 153.1340 180° South 12 14 420 Level FlightAware
07:05PM -27.3750 153.1340 180° South 420 Level FlightAware
07:05PM -27.3760 153.1340 180° South 48 55 600 Level FlightAware
07:06PM -27.3860 153.1280 208° Southwest 150 173 960 Level FlightAware
07:06PM -27.4070 153.1160 207° Southwest 169 194 900 1,980 Climbing FlightAware
07:06PM -27.4170 153.1100 208° Southwest 165 190 1,500 1,740 Climbing FlightAware
07:07PM -27.4360 153.1156 208° Southwest 176 203 2,000 1,200 Climbing Aus ATC (RADAR)
07:07PM -27.4370 153.1160 208° Southwest 190 219 2,000 1,980 Level FlightAware
07:07PM -27.4620 153.1310 152° Southeast 214 246 3,100 2,640 Climbing FlightAware
07:08PM -27.4799 153.1409 152° Southeast 217 250 4,100 2,760 Climbing Aus ATC (RADAR)
07:08PM -27.4890 153.1450 152° Southeast 225 259 4,500 2,580 Climbing FlightAware
07:08PM -27.4990 153.1480 165° South 230 265 5,100 3,000 Climbing FlightAware
07:09PM -27.5330 153.1410 190° South 242 278 6,500 2,400 Climbing FlightAware
07:09PM -27.5620 153.1330 194° South 268 308 7,300 2,280 Climbing FlightAware
07:09PM -27.5980 153.1180 200° South 280 322 8,600 2,580 Climbing FlightAware
07:10PM -27.6310 153.0950 212° Southwest 299 344 9,900 2,280 Climbing FlightAware
07:10PM -27.6567 153.0671 212° Southwest 304 350 10,600 1,200 Climbing Aus ATC (RADAR)
07:11PM -27.6720 153.0460 212° Southwest 347 399 10,700 2,220 Climbing FlightAware
07:11PM -27.7000 152.9810 244° Southwest 350 403 12,800 2,460 Climbing FlightAware
07:12PM -27.7320 152.9010 246° West 377 434 14,200 2,100 Climbing FlightAware
07:13PM -27.7620 152.8270 245° Southwest 389 448 15,800 2,580 Climbing FlightAware
07:13PM -27.7900 152.7570 246° West 384 442 17,700 2,520 Climbing FlightAware
07:14PM -27.8230 152.6720 246° West 388 447 19,400 2,340 Climbing FlightAware
07:14PM -27.8408 152.6272 246° West 382 440 20,300 1,920 Climbing Aus ATC (RADAR)
07:15PM -27.8530 152.5970 246° West 396 456 20,700 2,520 Climbing FlightAware
07:15PM -27.8744 152.5426 246° West 385 443 22,200 2,640 Climbing Aus ATC (RADAR)
07:16PM -27.8860 152.5150 246° West 382 440 22,700 1,980 Climbing FlightAware
07:16PM -27.9140 152.4420 247° West 376 433 24,200 2,340 Climbing FlightAware
07:17PM -27.9315 152.3984 247° West 369 425 25,100 1,980 Climbing Aus ATC (RADAR)
07:17PM -27.9470 152.3600 247° West 374 430 25,700 1,020 Climbing FlightAware
07:18PM -27.9710 152.2860 250° West 388 447 26,200 660 Climbing FlightAware
07:18PM -27.9860 152.1980 259° West 407 468 26,700 960 Climbing FlightAware
07:19PM -27.9970 152.1150 261° West 412 474 27,600 1,320 Climbing FlightAware
07:20PM -28.0100 152.0230 261° West 417 480 28,500 1,440 Climbing FlightAware
07:20PM -28.0183 151.9730 261° West 410 472 29,100 1,620 Climbing Aus ATC (RADAR)
07:20PM -28.0228 151.9409 261° West 410 472 29,500 960 Climbing Aus ATC (RADAR)
07:20PM -28.0240 151.9290 261° West 418 481 29,500 1,200 Level FlightAware
07:21PM -28.0342 151.8545 261° West 411 473 30,300 1,200 Climbing Aus ATC (RADAR)
07:21PM -28.0360 151.8430 261° West 418 481 30,300 1,080 Level FlightAware
07:22PM -28.0470 151.7570 262° West 416 479 31,200 1,560 Climbing FlightAware
07:22PM -28.0540 151.7148 262° West 409 471 31,800 1,860 Climbing Aus ATC (RADAR)
07:23PM -28.0610 151.6600 262° West 401 461 32,600 1,620 Climbing FlightAware
07:23PM -28.0710 151.5810 262° West 391 450 33,700 960 Climbing FlightAware
07:24PM -28.0840 151.4870 261° West 393 452 34,000 360 Climbing FlightAware
07:24PM -28.0910 151.4392 261° West 389 448 34,100  Climbing Aus ATC (RADAR)
07:25PM -28.0950 151.4050 261° West 397 457 34,000 360 Descending FlightAware
07:25PM -28.1029 151.3466 261° West 395 455 34,400 780 Climbing Aus ATC (RADAR)
07:25PM -28.1070 151.3180 261° West 395 455 34,600 780 Climbing FlightAware
07:26PM -28.1180 151.2340 262° West 393 452 35,200 780 Climbing FlightAware
07:27PM -28.1270 151.1610 262° West 395 455 35,600 780 Climbing FlightAware
07:27PM -28.1400 151.0719 262° West 391 450 36,200 480 Climbing Aus ATC (RADAR)
07:27PM -28.1410 151.0580 262° West 400 460 36,000 -240 Descending FlightAware
07:28PM -28.1520 150.9720 262° West 408 470 36,000 60 Level FlightAware
07:28PM -28.1579 150.9356 262° West 405 466 36,100 180 Climbing Aus ATC (RADAR)
07:29PM -28.1622 150.9043 261° West 403 464 36,100 -240 Level Aus ATC (RADAR)
07:29PM -28.1650 150.8800 261° West 408 470 36,000 -120 Descending FlightAware
07:30PM -28.1750 150.7990 262° West 408 470 36,000 60 Level FlightAware
07:30PM -28.1873 150.7143 262° West 405 466 36,100  Climbing Aus ATC (RADAR)
07:30PM -28.1870 150.7100 262° West 410 472 36,000 -180 Descending FlightAware
07:31PM -28.1970 150.6330 262° West 411 473 36,000  Level FlightAware
07:32PM -28.2130 150.5280 260° West 419 482 36,000 60 Level FlightAware
07:32PM -28.2306 150.4601 260° West 414 476 36,100  Climbing Aus ATC (RADAR)
07:32PM -28.2370 150.4330 260° West 419 482 36,000  Descending FlightAware
07:33PM -28.2492 150.3861 260° West 416 479 36,100  Climbing Aus ATC (RADAR)
07:33PM -28.2560 150.3560 260° West 419 482 36,000  Descending FlightAware
07:34PM -28.2751 150.2804 260° West 418 481 36,100  Climbing Aus ATC (RADAR)
07:34PM -28.2740 150.2840 260° West 419 482 36,000 -120 Descending FlightAware
07:34PM -28.2920 150.2120 254° West 419 482 36,000 60 Level FlightAware
07:35PM -28.3134 150.1206 254° West 422 486 36,100  Climbing Aus ATC (RADAR)
07:35PM -28.3100 150.1400 254° West 419 482 36,000  Descending FlightAware
07:36PM -28.3393 150.0141 254° West 421 484 36,100  Climbing Aus ATC (RADAR)
07:36PM -28.3330 150.0500 254° West 419 482 36,000 -120 Descending FlightAware
07:37PM -28.3510 149.9780 254° West 419 482 36,000  Level FlightAware
07:37PM -28.3690 149.9060 254° West 419 482 36,000  Level FlightAware
07:38PM -28.3870 149.8340 254° West 419 482 36,000  Level FlightAware
07:39PM -28.4060 149.7620 253° West 419 482 36,000 60 Level FlightAware
07:39PM -28.4444 149.5805 253° West 430 495 36,100  Climbing Aus ATC (RADAR)
07:39PM -28.4280 149.6720 253° West 419 482 36,000 -120 Descending FlightAware
07:40PM -28.4470 149.6000 253° West 419 482 36,000  Level FlightAware
07:41PM -28.4650 149.5280 254° West 419 482 36,000 60 Level FlightAware
07:41PM -28.5174 149.2732 254° West 433 498 36,100  Climbing Aus ATC (RADAR)
07:41PM -28.4830 149.4560 254° West 419 482 36,000 -180 Descending FlightAware
07:42PM -28.5010 149.3840 254° West 419 482 36,000 120 Level FlightAware
07:42PM -28.5435 149.1637 254° West 431 496 36,100 120 Climbing Aus ATC (RADAR)
07:43PM -28.5621 149.0852 254° West 438 504 36,100  Level Aus ATC (RADAR)
07:44PM -28.5908 148.9631 255° West 437 503 36,100 60 Level Aus ATC (RADAR)
07:44PM -28.6092 148.8851 255° West 437 503 36,200  Climbing Aus ATC (RADAR)
07:46PM -28.6643 148.6497 255° West 442 509 36,200  Level Aus ATC (RADAR)
07:46PM -28.6716 148.6170 256° West 434 499 36,200 -240 Level Aus ATC (RADAR)
07:47PM -28.6899 148.5340 256° West 427 491 36,000 -180 Descending Aus ATC (RADAR)
07:48PM -28.7181 148.4120 255° West 426 490 36,000  Level Aus ATC (RADAR)
07:48PM -28.7358 148.3351 255° West 424 488 36,000 60 Level Aus ATC (RADAR)
07:49PM -28.7683 148.1978 255° West 428 493 36,100 60 Climbing Aus ATC (RADAR)
07:50PM -28.7922 148.0909 256° West 418 481 36,200  Climbing Aus ATC (RADAR)
07:51PM -28.8094 148.0149 255° West 423 487 36,100  Descending Aus ATC (RADAR)
07:51PM -28.8168 147.9824 256° West 424 488 36,200  Climbing Aus ATC (RADAR)
07:52PM -28.8335 147.9080 256° West 412 474 36,100 -120 Descending Aus ATC (RADAR)
07:52PM -28.8604 147.7892 255° West 421 484 36,100 -120 Level Aus ATC (RADAR)
07:53PM -28.8770 147.7095 257° West 410 472 36,000 -120 Descending Aus ATC (RADAR)
07:54PM -28.9062 147.5802 256° West 412 474 36,000 60 Level Aus ATC (RADAR)
07:55PM -28.9348 147.4472 256° West 413 475 36,200 60 Climbing Aus ATC (RADAR)
07:56PM -28.9475 147.3751 259° West 404 465 36,100 -60 Descending Aus ATC (RADAR)
07:58PM -28.9934 147.1704 256° West 36,000 -60 Descending Aus ATC (Calculated)
07:58PM -29.0090 147.1013 256° West 36,000  Level Aus ATC (Calculated)
08:00PM -29.0367 146.9787 256° West  Level FlightAware Approximate
08:01PM -29.0617 146.8672 256° West  Level FlightAware Approximate
08:01PM -29.0770 146.7990 256° West 36,000  Level Aus ATC (Calculated)
08:02PM -29.0972 146.7082 256° West 36,000  Level Aus ATC (Calculated)
08:04PM -29.1463 146.4867 256° West  Level FlightAware Approximate
08:05PM -29.1216 146.5984 76° East  Level FlightAware Approximate
08:06PM -29.0968 146.7101 76° East  Level FlightAware Approximate
08:07PM -29.1210 146.5982 256° West  Level Estimated
08:07PM -29.2305 146.0830 256° West 36,000  Level Aus ATC (Calculated)
08:09PM -29.2772 145.8605 256° West  Level FlightAware Approximate
08:10PM -29.3006 145.7482 257° West  Level FlightAware Approximate
08:11PM -29.3239 145.6359 257° West  Level FlightAware Approximate
08:12PM -29.3470 145.5235 257° West  Level FlightAware Approximate
08:12PM -29.3663 145.4300 257° West 36,000  Level Aus ATC (Calculated)
08:12PM -29.3663 145.4300 257° West 36,000  Level Aus ATC (Calculated)
08:13PM -29.3893 145.3176 257° West  Level FlightAware Approximate
08:14PM -29.4122 145.2050 257° West  Level FlightAware Approximate
08:14PM -29.4263 145.1356 257° West 36,000  Level Aus ATC (Calculated)
08:15PM -29.4351 145.0925 257° West  Level FlightAware Approximate
08:16PM -29.4604 144.9667 257° West  Level FlightAware Approximate
08:17PM -29.4377 145.0793 77° East  Level FlightAware Approximate
08:18PM -29.4604 144.9667 257° West  Level FlightAware Approximate
08:19PM -29.4377 145.0793 77° East  Level FlightAware Approximate
08:19PM -29.5631 144.4504 257° West 36,000  Level Aus ATC (Calculated)
08:20PM -29.4620 144.9586 257° West  Level FlightAware Approximate
08:21PM -29.5981 144.2716 257° West  Level FlightAware Approximate
08:22PM -29.6201 144.1586 257° West  Level FlightAware Approximate
08:23PM -29.6420 144.0456 257° West  Level FlightAware Approximate
08:24PM -29.6638 143.9325 257° West  Level FlightAware Approximate
08:24PM -29.6914 143.7884 258° West 36,000  Level Aus ATC (Calculated)
08:25PM -29.6855 143.8193 258° West  Level FlightAware Approximate
08:26PM -29.7258 143.6078 258° West  Level FlightAware Approximate
08:27PM -29.7472 143.4949 258° West  Level FlightAware Approximate
08:28PM -29.7684 143.3819 258° West  Level FlightAware Approximate
08:29PM -29.7896 143.2689 258° West  Level FlightAware Approximate
08:29PM -29.8165 143.1248 258° West 36,000  Level Aus ATC (Calculated)
08:30PM -29.8107 143.1558 258° West  Level FlightAware Approximate
08:31PM -29.8503 142.9419 258° West  Level FlightAware Approximate
08:31PM -29.8574 142.9032 258° West 36,000  Level Aus ATC (Calculated)
08:32PM -29.8845 142.7554 258° West 36,000  Level Aus ATC (Calculated)
08:33PM -29.9174 142.5746 258° West 36,000  Level Aus ATC (Calculated)
08:34PM -29.9202 142.5590 258° West  Level FlightAware Approximate
08:35PM -29.8927 142.7106 78° East  Level FlightAware Approximate
08:36PM -29.9133 142.5973 258° West  Level FlightAware Approximate
08:36PM -29.9750 142.2537 258° West 36,000  Level Aus ATC (Calculated)
08:38PM -29.9398 142.4503 78° East  Level FlightAware Approximate
08:38PM -30.0318 141.9324 258° West 36,000  Level Aus ATC (Calculated)
08:40PM -30.0061 142.0781 79° East  Level FlightAware Approximate
08:41PM -30.0263 141.9646 258° West  Level Estimated
08:42PM -30.0462 141.8510 259° West  Level FlightAware Approximate
08:42PM -30.1063 141.5034 258° West 36,000  Level Aus ATC (Calculated)
08:43PM -30.1247 141.3961 258° West 36,000  Level Aus ATC (Calculated)
08:44PM -30.1359 141.3308 259° West  Level FlightAware Approximate
08:45PM -30.1500 141.2480 259° West  Level FlightAware Approximate
08:45PM -30.1410 141.3070 259° West 387 445 36,000  Level FlightAware
08:46PM -30.1693 141.1341 259° West  Level FlightAware Approximate
08:46PM -30.1560 141.2200 259° West 387 445 36,000  Level FlightAware
08:46PM -30.1690 141.1520 258° West 387 445 36,000  Level FlightAware
08:47PM -30.1820 141.0830 258° West 387 445 36,000  Level FlightAware
08:48PM -30.2241 140.8091 80° East 38,000  Climbing Aus ATC (Calculated)
08:48PM -30.1940 141.0140 259° West 387 445 36,000 -2,760 Descending FlightAware
08:48PM -30.2070 140.9450 259° West 387 445 36,000  Level FlightAware
08:49PM -30.2230 140.8590 258° West 387 445 36,000  Level FlightAware
08:50PM -30.2350 140.7900 259° West 387 445 36,000  Level FlightAware
08:50PM -30.2480 140.7210 258° West 387 445 36,000  Level FlightAware
08:51PM -30.2610 140.6520 258° West 387 445 36,000  Level FlightAware
08:52PM -30.2730 140.5830 259° West 387 445 36,000  Level FlightAware
08:52PM -30.3157 140.2584 83° East 38,000  Climbing Aus ATC (Calculated)
08:53PM -30.2890 140.4970 258° West 387 445 36,000 -2,400 Descending FlightAware
08:53PM -30.3286 140.1797 83° East 38,000  Climbing Aus ATC (Calculated)
08:53PM -30.3020 140.4280 258° West 387 445 36,000 -2,940 Descending FlightAware
08:54PM -30.3140 140.3590 258° West 387 445 36,000  Level FlightAware
08:57PM -30.3598 140.0653 260° West  Level FlightAware Approximate
08:57PM -30.4050 139.7067 259° West 38,000  Level Aus ATC (Calculated)
08:58PM -30.3775 139.9508 260° West  Level FlightAware Approximate
08:58PM -30.4175 139.6278 259° West 38,000  Level Aus ATC (Calculated)
08:59PM -30.4244 139.5846 260° West  Level FlightAware Approximate
09:00PM -30.4402 139.4847 260° West  Level FlightAware Approximate
09:01PM -30.4582 139.3701 260° West  Level FlightAware Approximate
09:02PM -30.4761 139.2556 260° West  Level FlightAware Approximate
09:02PM -30.4919 139.1540 259° West 38,000  Level Aus ATC (Calculated)
09:02PM -30.4919 139.1540 259° West 38,000  Level Aus ATC (Calculated)
09:03PM -30.4939 139.1410 260° West  Level FlightAware Approximate
09:04PM -30.5111 139.0298 260° West  Level FlightAware Approximate
09:05PM -30.5287 138.9151 260° West  Level FlightAware Approximate
09:06PM -30.5462 138.8004 260° West  Level FlightAware Approximate
09:07PM -30.5637 138.6856 260° West  Level FlightAware Approximate
09:07PM -30.5766 138.6003 259° West 38,000  Level Aus ATC (Calculated)
09:08PM -30.5810 138.5708 260° West  Level FlightAware Approximate
09:08PM -30.6003 138.4419 259° West 38,000  Level Aus ATC (Calculated)
09:09PM -30.5953 138.4755 254° West  Level Estimated
09:10PM -30.6296 138.3198 254° West  Level FlightAware Approximate
09:11PM -30.6566 138.2071 254° West  Level FlightAware Approximate
09:12PM -30.6835 138.0943 254° West  Level FlightAware Approximate
09:13PM -30.7102 137.9814 255° West  Level FlightAware Approximate
09:13PM -30.7405 137.8533 260° West 38,000  Level Aus ATC (Calculated)
09:14PM -30.7369 137.8685 255° West  Level FlightAware Approximate
09:15PM -30.7719 137.7196 255° West  Level FlightAware Approximate
09:16PM -30.7984 137.6066 255° West  Level FlightAware Approximate
09:17PM -30.8247 137.4934 255° West  Level FlightAware Approximate
09:18PM -30.8510 137.3802 255° West  Level FlightAware Approximate
09:18PM -30.8780 137.2631 260° West 38,000  Level Aus ATC (Calculated)
09:19PM -30.8771 137.2670 255° West  Level FlightAware Approximate
09:20PM -30.9088 137.1294 255° West  Level FlightAware Approximate
09:21PM -30.9346 137.0164 255° West  Level FlightAware Approximate
09:22PM -30.9604 136.9033 255° West  Level FlightAware Approximate
09:23PM -30.9860 136.7901 255° West  Level FlightAware Approximate
09:23PM -31.0129 136.6712 261° West 38,000  Level Aus ATC (Calculated)
09:24PM -31.0116 136.6769 255° West  Level FlightAware Approximate
09:25PM -31.0434 136.5352 255° West  Level FlightAware Approximate
09:25PM -31.0509 136.5017 261° West 38,000  Level Aus ATC (Calculated)
09:27PM -31.0855 136.3468 255° West  Level FlightAware Approximate
09:28PM -31.1106 136.2333 255° West  Level FlightAware Approximate
09:28PM -31.1450 136.0776 261° West 38,000  Level Aus ATC (Calculated)
09:30PM -31.1749 135.9413 256° West  Level FlightAware Approximate
09:31PM -31.1998 135.8276 256° West  Level FlightAware Approximate
09:32PM -31.2245 135.7139 256° West  Level FlightAware Approximate
09:32PM -31.2306 135.6587 261° West 38,000  Level Aus ATC (Calculated)
09:34PM -31.2229 135.7124 260° West  Level FlightAware Approximate
09:35PM -31.2395 135.5963 260° West  Level FlightAware Approximate
09:36PM -31.2560 135.4801 261° West  Level FlightAware Approximate
09:36PM -31.2864 135.2633 262° West 38,000  Level Aus ATC (Calculated)
09:37PM -31.3084 135.1050 262° West 38,000  Level Aus ATC (Calculated)
09:38PM -31.3193 135.0258 262° West 38,000  Level Aus ATC (Calculated)
09:40PM -31.3493 134.8066 261° West  Level FlightAware Approximate
09:40PM -31.3518 134.7882 262° West 38,000  Level Aus ATC (Calculated)
09:42PM -31.3790 134.5863 261° West  Level FlightAware Approximate
09:43PM -31.3945 134.4698 261° West  Level FlightAware Approximate
09:43PM -31.3838 134.5504 262° West 38,000  Level Aus ATC (Calculated)
09:44PM -31.4100 134.3532 261° West  Level FlightAware Approximate
09:45PM -31.4145 134.3192 261° West  Level FlightAware Approximate
09:46PM -31.4298 134.2026 261° West  Level FlightAware Approximate
09:47PM -31.4450 134.0860 261° West  Level FlightAware Approximate
09:48PM -31.4601 133.9693 261° West  Level FlightAware Approximate
09:48PM -31.4568 133.9949 262° West 38,000  Level Aus ATC (Calculated)
09:49PM -31.4751 133.8526 261° West  Level FlightAware Approximate
09:50PM -31.4865 133.7634 261° West  Level FlightAware Approximate
09:51PM -31.5013 133.6466 262° West  Level FlightAware Approximate
09:52PM -31.5160 133.5298 262° West  Level FlightAware Approximate
09:53PM -31.5306 133.4130 262° West  Level FlightAware Approximate
09:53PM -31.5274 133.4386 263° West 38,000  Level Aus ATC (Calculated)
09:54PM -31.5451 133.2961 262° West  Level FlightAware Approximate
09:55PM -31.5563 133.2048 262° West  Level FlightAware Approximate
09:56PM -31.5706 133.0878 262° West  Level FlightAware Approximate
09:57PM -31.5848 132.9709 262° West  Level FlightAware Approximate
09:58PM -31.5989 132.8538 262° West  Level FlightAware Approximate
09:58PM -31.5956 132.8815 263° West 38,000  Level Aus ATC (Calculated)
09:58PM -31.5956 132.8815 263° West 38,000  Level Aus ATC (Calculated)
09:59PM -31.6096 132.7644 262° West  Level FlightAware Approximate
10:00PM -31.6235 132.6473 262° West  Level FlightAware Approximate
10:00PM -31.6335 132.5627 263° West 38,000  Level Aus ATC (Calculated)
10:01PM -31.6373 132.5302 262° West  Level FlightAware Approximate
10:02PM -31.6535 132.3909 262° West  Level FlightAware Approximate
10:02PM -31.6614 132.3235 263° West 38,000  Level Aus ATC (Calculated)
10:03PM -31.6671 132.2737 262° West  Level FlightAware Approximate
10:04PM -31.6806 132.1565 262° West  Level FlightAware Approximate
10:05PM -31.6885 132.0871 262° West  Level FlightAware Approximate
10:06PM -31.7017 131.9698 262° West  Level FlightAware Approximate
10:07PM -31.7149 131.8525 262° West  Level FlightAware Approximate
10:07PM -31.7247 131.7648 264° West 38,000  Level Aus ATC (Calculated)
10:08PM -31.7280 131.7352 263° West  Level FlightAware Approximate
10:09PM -31.7379 131.6452 263° West  Level FlightAware Approximate
10:10PM -31.7509 131.5274 263° West  Level FlightAware Approximate
10:11PM -31.7637 131.4096 263° West  Level FlightAware Approximate
10:12PM -31.7764 131.2917 263° West  Level FlightAware Approximate
10:12PM -31.7856 131.2054 264° West 38,000  Level Aus ATC (Calculated)
10:13PM -31.7890 131.1739 263° West  Level FlightAware Approximate
10:14PM -31.7985 131.0836 263° West  Level FlightAware Approximate
10:15PM -31.8109 130.9657 263° West  Level FlightAware Approximate
10:16PM -31.8232 130.8477 263° West  Level FlightAware Approximate
10:17PM -31.8354 130.7297 263° West  Level FlightAware Approximate
10:17PM -31.8440 130.6453 265° West 38,000  Level Aus ATC (Calculated)
10:18PM -31.8475 130.6117 263° West  Level FlightAware Approximate
10:19PM -31.8564 130.5233 263° West  Level FlightAware Approximate
10:20PM -31.8683 130.4052 263° West  Level FlightAware Approximate
10:21PM -31.8801 130.2871 263° West  Level FlightAware Approximate
10:22PM -31.8918 130.1690 263° West  Level FlightAware Approximate
10:22PM -31.8922 130.1646 265° West 38,000  Level Aus ATC (Calculated)
10:22PM -31.9000 130.0844 265° West 38,000  Level Aus ATC (Calculated)
10:22PM -31.9000 130.0844 265° West 38,000  Level Aus ATC (Calculated)
10:24PM -31.9119 129.9623 263° West  Level FlightAware Approximate
10:25PM -31.9233 129.8441 264° West  Level FlightAware Approximate
10:26PM -31.9345 129.7259 264° West  Level FlightAware Approximate
10:27PM -31.9456 129.6076 264° West  Level FlightAware Approximate
10:27PM -31.9536 129.5229 265° West 38,000  Level Aus ATC (Calculated)
10:28PM -31.9567 129.4893 263° West  Level FlightAware Approximate
10:29PM -31.9651 129.3987 264° West  Level FlightAware Approximate
10:30PM -31.9759 129.2803 264° West  Level FlightAware Approximate
10:31PM -31.9866 129.1620 264° West  Level FlightAware Approximate
10:32PM -31.9972 129.0436 264° West  Level FlightAware Approximate
10:32PM -32.0046 128.9608 266° West 38,000  Level Aus ATC (Calculated)
10:33PM -32.0078 128.9251 264° West  Level FlightAware Approximate
10:34PM -32.0157 128.8345 264° West  Level FlightAware Approximate
10:35PM -32.0261 128.7160 264° West  Level FlightAware Approximate
10:36PM -32.0363 128.5975 264° West  Level FlightAware Approximate
10:37PM -32.0464 128.4789 264° West  Level FlightAware Approximate
10:37PM -32.0464 128.4785 266° West 38,000  Level Aus ATC (Calculated)
10:37PM -32.0532 128.3981 266° West 38,000  Level Aus ATC (Calculated)
10:39PM -32.0638 128.2716 264° West  Level FlightAware Approximate
10:40PM -32.0735 128.1530 264° West  Level FlightAware Approximate
10:41PM -32.0832 128.0343 264° West  Level FlightAware Approximate
10:42PM -32.0928 127.9157 265° West  Level FlightAware Approximate
10:42PM -32.0993 127.8347 267° West 38,000  Level Aus ATC (Calculated)
10:43PM -32.1022 127.7970 265° West  Level FlightAware Approximate
10:44PM -32.1094 127.7062 265° West  Level FlightAware Approximate
10:45PM -32.1187 127.5874 265° West  Level FlightAware Approximate
10:46PM -32.1278 127.4687 265° West  Level FlightAware Approximate
10:47PM -32.1369 127.3499 265° West  Level FlightAware Approximate
10:47PM -32.1428 127.2709 267° West 38,000  Level Aus ATC (Calculated)
10:48PM -32.1458 127.2311 265° West  Level FlightAware Approximate
10:49PM -32.1524 127.1422 265° West  Level FlightAware Approximate
10:50PM -32.1612 127.0233 265° West  Level FlightAware Approximate
10:51PM -32.1698 126.9045 265° West  Level FlightAware Approximate
10:52PM -32.1783 126.7856 265° West  Level FlightAware Approximate
10:52PM -32.1839 126.7065 268° West 38,000  Level Aus ATC (Calculated)
10:52PM -32.1839 126.7065 268° West 38,000  Level Aus ATC (Calculated)
10:53PM -32.1867 126.6667 265° West  Level FlightAware Approximate
10:54PM -32.1931 126.5753 265° West  Level FlightAware Approximate
10:55PM -32.1886 126.4552 270° West  Level Estimated
10:56PM -32.1909 126.3356 269° West  Level FlightAware Approximate
10:57PM -32.1931 126.2159 269° West  Level FlightAware Approximate
10:57PM -32.2225 126.1416 268° West 38,000  Level Aus ATC (Calculated)
10:58PM -32.1951 126.0962 269° West  Level FlightAware Approximate
10:59PM -32.2238 126.0099 269° West  Level FlightAware Approximate
10:59PM -32.2331 125.9801 268° West 38,000  Level Aus ATC (Calculated)
11:00PM -32.2249 125.8902 269° West  Level FlightAware Approximate
11:01PM -32.2340 125.8325 270° West  Level FlightAware Approximate
11:01PM -32.2434 125.8186 268° West 38,000  Level Aus ATC (Calculated)
11:03PM -32.2440 125.6270 270° West  Level FlightAware Approximate
11:03PM -32.2635 125.4955 269° West 38,000  Level Aus ATC (Calculated)
11:04PM -32.2442 125.5073 270° West  Level FlightAware Approximate
11:05PM -32.2628 125.3518 270° West  Level FlightAware Approximate
11:05PM -32.2623 125.2644 269° West 40,000  Level Aus ATC (Calculated)
11:06PM -32.2623 125.2644 269° West 40,000  Level Aus ATC (Calculated)
11:07PM -32.2608 125.0332 269° West 40,000  Level Aus ATC (Calculated)
11:08PM -32.2611 125.0707 270° West  Level FlightAware Approximate
11:09PM -32.2596 124.8895 271° West  Level FlightAware Approximate
11:10PM -32.2584 124.7697 271° West  Level FlightAware Approximate
11:10PM -32.2576 124.6865 269° West 40,000  Level Aus ATC (Calculated)
11:11PM -32.2572 124.6499 271° West  Level FlightAware Approximate
11:12PM -32.2560 124.5383 271° West  Level FlightAware Approximate
11:13PM -32.2545 124.4182 271° West  Level FlightAware Approximate
11:14PM -32.2529 124.2981 271° West  Level FlightAware Approximate
11:15PM -32.2513 124.1779 271° West  Level FlightAware Approximate
11:15PM -32.2519 124.2243 269° West 40,000  Level Aus ATC (Calculated)
11:16PM -32.2495 124.0578 271° West  Level FlightAware Approximate
11:17PM -32.2492 124.0381 271° West  Level FlightAware Approximate
11:18PM -32.2472 123.9180 271° West  Level FlightAware Approximate
11:19PM -32.2452 123.7979 271° West  Level FlightAware Approximate
11:20PM -32.2430 123.6777 271° West  Level FlightAware Approximate
11:20PM -32.2425 123.6466 269° West 40,000  Level Aus ATC (Calculated)
11:20PM -32.2402 123.5311 269° West 40,000  Level Aus ATC (Calculated)
11:20PM -32.2402 123.5311 269° West 40,000  Level Aus ATC (Calculated)
11:22PM -32.2373 123.3850 271° West  Level FlightAware Approximate
11:23PM -32.2347 123.2649 271° West  Level FlightAware Approximate
11:24PM -32.2333 123.1448 266° West  Level Estimated
11:25PM -32.2381 123.0248 267° West  Level FlightAware Approximate
11:25PM -32.2276 122.9536 268° West 40,000  Level Aus ATC (Calculated)
11:26PM -32.2276 122.9536 268° West 40,000  Level Aus ATC (Calculated)
11:27PM -32.2248 122.8381 268° West 40,000  Level Aus ATC (Calculated)
11:29PM -32.2341 122.6181 267° West  Level FlightAware Approximate
11:30PM -32.2390 122.4982 267° West  Level FlightAware Approximate
11:30PM -32.2124 122.3762 268° West 40,000  Level Aus ATC (Calculated)
11:32PM -32.2198 122.2184 267° West  Level FlightAware Approximate
11:32PM -32.2055 122.1454 267° West 40,000  Level Aus ATC (Calculated)
11:33PM -32.2254 122.0984 267° West  Level FlightAware Approximate
11:34PM -32.2130 121.9975 267° West  Level FlightAware Approximate
11:35PM -32.2190 121.8776 267° West  Level FlightAware Approximate
11:36PM -32.2248 121.7577 267° West  Level FlightAware Approximate
11:37PM -32.2305 121.6378 267° West  Level FlightAware Approximate
11:37PM -32.2058 121.5998 266° West 40,000  Level Aus ATC (Calculated)
11:38PM -32.2361 121.5179 267° West  Level FlightAware Approximate
11:39PM -32.2140 121.4501 266° West  Level FlightAware Approximate
11:39PM -32.2167 121.4005 266° West 40,000  Level Aus ATC (Calculated)
11:40PM -32.2221 121.3009 267° West 40,000  Level Aus ATC (Calculated)
11:41PM -32.2251 121.2447 266° West  Level FlightAware Approximate
11:41PM -32.2274 121.2012 267° West 40,000  Level Aus ATC (Calculated)
11:41PM -32.2274 121.2012 267° West 40,000  Level Aus ATC (Calculated)
11:43PM -32.2380 120.9960 266° West  Level FlightAware Approximate
11:43PM -32.2377 121.0018 267° West 40,000  Level Aus ATC (Calculated)
11:44PM -32.2437 120.8822 267° West  Level FlightAware Approximate
11:44PM -32.2605 120.4965 267° West 339 390 40,100  Level Aus ATC (RADAR)
11:44PM -32.2627 120.4681 265° West 339 390 40,100  Level Aus ATC (RADAR)
11:45PM -32.2594 120.4025 273° West 339 390 40,100  Level Aus ATC (RADAR)
11:46PM -32.2652 120.2708 267° West 339 390 40,100  Level Aus ATC (RADAR)
11:46PM -32.2678 120.2426 264° West 340 391 40,100  Level Aus ATC (RADAR)
11:47PM -32.2720 120.1765 266° West 340 391 40,100  Level Aus ATC (RADAR)
11:48PM -32.2754 120.0731 268° West 341 392 40,100  Level Aus ATC (RADAR)
11:48PM -32.2770 120.0262 268° West 339 390 40,100  Level Aus ATC (RADAR)
11:49PM -32.2837 119.9026 266° West 342 394 40,100  Level Aus ATC (RADAR)
11:49PM -32.2854 119.8739 266° West 343 395 40,100  Level Aus ATC (RADAR)
11:50PM -32.2877 119.8073 268° West 344 396 40,100  Level Aus ATC (RADAR)
11:51PM -32.2936 119.6825 267° West 345 397 40,100  Level Aus ATC (RADAR)
11:51PM -32.2951 119.6532 267° West 348 400 40,100  Level Aus ATC (RADAR)
11:52PM -32.3001 119.5858 265° West 347 399 40,100  Level Aus ATC (RADAR)
11:53PM -32.3021 119.4798 269° West 346 398 40,100  Level Aus ATC (RADAR)
11:54PM -32.3066 119.3830 267° West 347 399 40,100 -60 Level Aus ATC (RADAR)
11:55PM -32.3140 119.2680 267° West 354 407 40,000  Descending FlightAware
11:55PM -32.3122 119.2477 267° West 346 398 40,100  Climbing Aus ATC (RADAR)
11:55PM -32.3170 119.1990 267° West 353 406 40,000 -120 Descending FlightAware
11:56PM -32.3200 119.1100 268° West 352 405 40,000 60 Level FlightAware
11:56PM -32.3183 119.0749 268° West 343 395 40,100 180 Climbing Aus ATC (RADAR)
11:56PM -32.3195 119.0466 267° West 342 394 40,100 -180 Level Aus ATC (RADAR)
11:57PM -32.3240 119.0080 267° West 349 402 40,000 -120 Descending FlightAware
11:58PM -32.3270 118.9200 268° West 346 398 40,000 60 Level FlightAware
11:58PM -32.3261 118.8762 268° West 338 389 40,100 60 Climbing Aus ATC (RADAR)
11:59PM -32.3281 118.8103 268° West 336 387 40,100 -120 Level Aus ATC (RADAR)
11:59PM -32.3310 118.7770 268° West 344 396 40,000  Descending FlightAware
11:59PM -32.3320 118.7074 268° West 335 386 40,100  Climbing Aus ATC (RADAR)
12:00AM -32.3330 118.6920 268° West 344 396 40,000  Descending FlightAware
12:00AM -32.3337 118.6425 268° West 332 382 40,100  Climbing Aus ATC (RADAR)
12:00AM -32.3370 118.6190 268° West 341 392 40,000 -120 Descending FlightAware
12:01AM -32.3400 118.5290 268° West 343 395 40,000 60 Level FlightAware
12:02AM -32.3395 118.4747 268° West 334 384 40,100  Climbing Aus ATC (RADAR)
12:02AM -32.3420 118.4660 268° West 343 395 40,000  Descending FlightAware
12:02AM -32.3418 118.4096 268° West 333 383 40,100  Climbing Aus ATC (RADAR)
12:03AM -32.3440 118.3730 268° West 342 394 40,000  Descending FlightAware
12:03AM -32.3440 118.3168 268° West 330 380 40,100 60 Climbing Aus ATC (RADAR)
12:04AM -32.3458 118.2522 268° West 330 380 40,100 -120 Level Aus ATC (RADAR)
12:04AM -32.3490 118.2230 268° West 339 390 40,000  Descending FlightAware
12:04AM -32.3495 118.1497 268° West 335 386 40,100  Climbing Aus ATC (RADAR)
12:05AM -32.3510 118.1500 268° West 342 394 40,000 -300 Descending FlightAware
12:05AM -32.3530 118.0620 268° West 340 391 39,900 -660 Descending FlightAware
12:06AM -32.3529 118.0207 268° West 325 374 39,300 -1,920 Descending Aus ATC (RADAR)
12:06AM -32.3550 117.9840 268° West 334 384 38,500 -2,400 Descending FlightAware
12:06AM -32.3556 117.9295 268° West 320 368 37,300 -2,700 Descending Aus ATC (RADAR)
12:07AM -32.3580 117.9060 268° West 335 386 36,700 -2,760 Descending FlightAware
12:07AM -32.3576 117.8653 268° West 322 371 35,700 -2,940 Descending Aus ATC (RADAR)
12:08AM -32.3610 117.7760 268° West 358 412 33,300 -2,640 Descending FlightAware
12:09AM -32.3630 117.6980 268° West 367 422 31,800 -2,340 Descending FlightAware
12:09AM -32.3520 117.6090 278° West 367 422 30,000 -2,340 Descending FlightAware
12:10AM -32.3320 117.5230 285° West 363 418 28,300 -2,220 Descending FlightAware
12:11AM -32.3140 117.4510 286° West 361 415 26,900 -2,100 Descending FlightAware
12:11AM -32.2950 117.3710 286° West 358 412 25,400 -2,220 Descending FlightAware
12:12AM -32.2760 117.2910 286° West 353 406 23,800 -2,340 Descending FlightAware
12:13AM -32.2580 117.2170 286° West 349 402 22,300 -2,280 Descending FlightAware
12:13AM -32.2465 117.1712 286° West 333 383 21,500 -2,280 Descending Aus ATC (RADAR)
12:14AM -32.2370 117.1280 286° West 344 396 20,600 -2,100 Descending FlightAware
12:14AM -32.2200 117.0590 286° West 342 394 19,300 -2,100 Descending FlightAware
12:15AM -32.2046 117.0008 286° West 325 374 18,200 -2,100 Descending Aus ATC (RADAR)
12:15AM -32.2030 116.9900 286° West 340 391 17,900 -1,380 Descending FlightAware
12:15AM -32.1894 116.9389 286° West 322 371 17,400 -1,080 Descending Aus ATC (RADAR)
12:15AM -32.1860 116.9230 286° West 316 364 17,300 -720 Descending FlightAware
12:16AM -32.1740 116.8910 294° West 309 356 17,000 -1,440 Descending FlightAware
12:17AM -32.1360 116.8330 308° West 303 349 15,800 -1,800 Descending FlightAware
12:17AM -32.1210 116.8114 308° West 299 344 15,400 -1,740 Descending Aus ATC (RADAR)
12:17AM -32.0960 116.7720 308° West 303 349 14,500 -1,740 Descending FlightAware
12:18AM -32.0620 116.7210 308° West 300 345 13,400 -1,620 Descending FlightAware
12:18AM -32.0427 116.6927 308° West 292 336 12,900 -1,500 Descending Aus ATC (RADAR)
12:19AM -32.0290 116.6710 308° West 295 339 12,400 -1,740 Descending FlightAware
12:19AM -32.0128 116.6479 308° West 287 330 11,900 -1,680 Descending Aus ATC (RADAR)
12:20AM -31.9830 116.6020 308° West 290 334 10,900 -1,560 Descending FlightAware
12:20AM -31.9672 116.5789 308° West 280 322 10,500 -1,620 Descending Aus ATC (RADAR)
12:20AM -31.9450 116.5450 308° West 283 326 9,700 -1,560 Descending FlightAware
12:21AM -31.9290 116.5130 300° West 278 320 9,100 -1,380 Descending FlightAware
12:21AM -31.9180 116.4920 302° West 268 308 8,800 -1,500 Descending FlightAware
12:21AM -31.9006 116.4593 302° West 256 295 8,100 -1,200 Descending Aus ATC (RADAR)
12:21AM -31.9030 116.4640 302° West 255 293 8,200 -840 Climbing FlightAware
12:22AM -31.8840 116.4260 300° West 232 267 7,700 -960 Descending FlightAware
12:22AM -31.8729 116.4044 300° West 223 257 7,500 -600 Descending Aus ATC (RADAR)
12:22AM -31.8690 116.3950 300° West 209 241 7,400 -780 Descending FlightAware
12:23AM -31.8550 116.3690 302° West 205 236 7,000 -960 Descending FlightAware
12:23AM -31.8457 116.3503 302° West 203 234 6,700 -1,200 Descending Aus ATC (RADAR)
12:23AM -31.8430 116.3440 302° West 206 237 6,500 -960 Descending FlightAware
12:24AM -31.8350 116.3290 302° West 213 245 6,300 -1,080 Descending FlightAware
12:24AM -31.8220 116.3060 304° West 216 249 5,900 -900 Descending FlightAware
12:24AM -31.8070 116.2750 300° West 209 241 5,500 -840 Descending FlightAware
12:25AM -31.7980 116.2560 299° West 208 239 5,200 -1,200 Descending FlightAware
12:25AM -31.8050 116.2260 255° West 206 237 4,600 -1,140 Descending FlightAware
12:26AM -31.8160 116.2000 244° Southwest 198 228 4,200 -960 Descending FlightAware
12:26AM -31.8260 116.1810 238° Southwest 190 219 3,900 -960 Descending FlightAware
12:26AM -31.8370 116.1620 236° Southwest 188 216 3,500 -1,140 Descending FlightAware
12:27AM -31.8474 116.1411 236° Southwest 186 214 3,100 -1,200 Descending Aus ATC (RADAR)
12:27AM -31.8490 116.1370 236° Southwest 188 216 3,000 -1,020 Descending FlightAware
12:27AM -31.8620 116.1120 239° Southwest 174 200 2,500 -960 Descending FlightAware
12:28AM -31.8690 116.0988 239° Southwest 172 198 2,300 -900 Descending Aus ATC (RADAR)
12:28AM -31.8710 116.0950 239° Southwest 166 191 2,200 -900 Descending FlightAware
12:28AM -31.8820 116.0740 238° Southwest 161 185 1,800 -780 Descending FlightAware
12:28AM -31.8906 116.0574 238° Southwest 156 180 1,600 -900 Descending Aus ATC (RADAR)
12:29AM -31.8960 116.0460 238° Southwest 155 178 1,300 -900 Descending FlightAware
12:29AM -31.9034 116.0320 238° Southwest 149 171 1,100 -720 Descending Aus ATC (RADAR)
12:29AM -31.9040 116.0310 238° Southwest 150 173 1,000 -1,020 Descending FlightAware
12:30AM -31.9160 116.0070 239° Southwest 151 174 500 -780 Descending FlightAware
12:30AM -31.9235 115.9934 239° Southwest 145 167 400 -480 Descending Aus ATC (RADAR)
12:30AM -31.9250 115.9900 239° Southwest 145 167 300 -1,020 Descending FlightAware